Time;durP1;ratioP1;P1;durP2;ratioP2;P2;SDS_P1;SDS_P2;PMS_P1;PMS_P2;Temp;Humidity;BMP_temperature;BMP_pressure;BME280_temperature;BME280_humidity;BME280_pressure;Samples;Min_cycle;Max_cycle;Signal;HPM_P1;HPM_P2
2021/03/24 00:00:34;;;;;;;28.10;13.20;;;6.50;99.90;;;;;;6194531;23;20159;-84
2021/03/24 00:02:59;;;;;;;26.67;12.90;;;6.50;99.90;;;;;;6168987;23;20182;-84
2021/03/24 00:05:32;;;;;;;23.80;11.90;;;6.50;99.90;;;;;;6170115;23;20179;-84
2021/03/24 00:07:58;;;;;;;30.13;14.13;;;6.50;99.90;;;;;;6169338;23;20191;-85
2021/03/24 00:10:26;;;;;;;27.30;14.23;;;6.50;99.90;;;;;;6196789;23;20242;-84
2021/03/24 00:12:52;;;;;;;30.47;14.93;;;6.50;99.90;;;;;;6195122;23;20219;-84
2021/03/24 00:15:19;;;;;;;28.87;14.30;;;6.60;99.90;;;;;;6196190;23;20496;-85
2021/03/24 00:17:44;;;;;;;26.13;13.83;;;6.50;99.90;;;;;;6169398;23;20160;-85
2021/03/24 00:20:12;;;;;;;27.07;13.77;;;6.60;99.90;;;;;;6170835;23;20232;-84
2021/03/24 00:22:37;;;;;;;27.57;12.87;;;6.50;99.90;;;;;;6170733;23;20182;-85
2021/03/24 00:25:05;;;;;;;27.33;14.37;;;6.50;99.90;;;;;;6169209;23;20675;-84
2021/03/24 00:27:30;;;;;;;28.70;14.57;;;6.40;99.90;;;;;;6171455;23;20597;-85
2021/03/24 00:29:56;;;;;;;30.50;14.20;;;6.40;99.90;;;;;;6171422;23;20156;-84
2021/03/24 00:32:22;;;;;;;28.60;14.77;;;6.40;99.90;;;;;;6196482;23;20229;-84
2021/03/24 00:34:47;;;;;;;31.77;16.43;;;6.40;99.90;;;;;;6172403;23;20160;-85
2021/03/24 00:37:13;;;;;;;29.03;13.77;;;6.40;99.90;;;;;;6198762;23;20156;-85
2021/03/24 00:39:38;;;;;;;31.93;15.23;;;6.50;99.90;;;;;;6198936;23;20152;-85
2021/03/24 00:42:04;;;;;;;31.67;15.50;;;6.50;99.90;;;;;;6169321;23;20168;-84
2021/03/24 00:44:30;;;;;;;30.43;15.27;;;6.50;99.90;;;;;;6196554;23;20153;-85
2021/03/24 00:46:57;;;;;;;30.37;15.57;;;6.50;99.90;;;;;;6196055;23;20161;-85
2021/03/24 00:49:26;;;;;;;38.10;16.70;;;6.50;99.90;;;;;;6169625;23;20571;-85
2021/03/24 00:51:52;;;;;;;29.33;14.63;;;6.50;99.90;;;;;;6197475;23;20190;-84
2021/03/24 00:54:18;;;;;;;32.63;14.73;;;6.50;99.90;;;;;;6196159;23;20175;-84
2021/03/24 00:56:44;;;;;;;30.93;15.03;;;6.50;99.90;;;;;;6170392;23;20239;-84
2021/03/24 00:59:09;;;;;;;30.13;15.37;;;6.50;99.90;;;;;;6170721;23;20163;-84
2021/03/24 01:01:35;;;;;;;31.23;15.13;;;6.50;99.90;;;;;;6169772;23;20144;-84
2021/03/24 01:04:00;;;;;;;29.47;13.73;;;6.50;99.90;;;;;;6197181;23;20195;-84
2021/03/24 01:06:26;;;;;;;29.50;14.50;;;6.50;99.90;;;;;;6170400;23;20156;-84
2021/03/24 01:08:56;;;;;;;27.67;13.87;;;6.50;99.90;;;;;;6195592;23;20246;-84
2021/03/24 01:11:22;;;;;;;29.67;14.93;;;6.60;99.90;;;;;;6169938;23;20163;-84
2021/03/24 01:13:48;;;;;;;25.77;13.27;;;6.60;99.90;;;;;;6169771;23;20192;-84
2021/03/24 01:16:13;;;;;;;30.70;15.00;;;6.60;99.90;;;;;;6196963;23;20170;-84
2021/03/24 01:18:39;;;;;;;32.63;15.60;;;6.60;99.90;;;;;;6171452;23;20187;-85
2021/03/24 01:21:05;;;;;;;29.47;15.30;;;6.60;99.90;;;;;;6194930;23;20157;-85
2021/03/24 01:23:30;;;;;;;28.97;14.90;;;6.60;99.90;;;;;;6195424;23;20179;-85
2021/03/24 01:25:56;;;;;;;30.90;15.57;;;6.60;99.90;;;;;;6196398;23;20174;-85
2021/03/24 01:28:24;;;;;;;27.10;13.20;;;6.60;99.90;;;;;;6169524;23;20195;-85
2021/03/24 01:30:49;;;;;;;28.87;13.77;;;6.60;99.90;;;;;;6196324;23;20144;-85
2021/03/24 01:33:15;;;;;;;31.47;15.77;;;6.60;99.90;;;;;;6196107;23;20214;-84
2021/03/24 01:35:41;;;;;;;28.50;14.53;;;6.60;99.90;;;;;;6169885;23;20156;-85
2021/03/24 01:38:07;;;;;;;32.83;15.37;;;6.50;99.90;;;;;;6194983;23;20163;-84
2021/03/24 01:40:40;;;;;;;29.87;15.97;;;6.50;99.90;;;;;;6168594;23;20663;-84
2021/03/24 01:43:09;;;;;;;29.70;15.13;;;6.50;99.90;;;;;;6168848;23;20191;-84
2021/03/24 01:45:35;;;;;;;28.27;15.77;;;6.50;99.90;;;;;;6194168;23;20234;-84
2021/03/24 01:48:03;;;;;;;31.87;15.37;;;6.50;99.90;;;;;;6193311;23;20188;-84
2021/03/24 01:50:36;;;;;;;36.33;16.43;;;6.60;99.90;;;;;;6194001;23;20153;-84
2021/03/24 01:53:01;;;;;;;33.13;16.00;;;6.50;99.90;;;;;;6194805;23;20213;-84
2021/03/24 01:55:28;;;;;;;31.90;15.93;;;6.50;99.90;;;;;;6168477;23;20160;-84
2021/03/24 01:57:55;;;;;;;31.20;15.00;;;6.50;99.90;;;;;;6169180;23;20156;-84
2021/03/24 02:00:23;;;;;;;35.40;16.17;;;6.50;99.90;;;;;;6168059;23;20179;-84
2021/03/24 02:02:49;;;;;;;33.87;15.87;;;6.60;99.90;;;;;;6167541;23;20561;-85
2021/03/24 02:05:14;;;;;;;28.17;13.80;;;6.50;99.90;;;;;;6192386;23;20178;-84
2021/03/24 02:08:04;;;;;;;34.33;16.23;;;6.50;99.90;;;;;;6167460;23;20156;-84
2021/03/24 02:10:42;;;;;;;30.47;15.40;;;6.50;99.90;;;;;;6194942;23;20148;-84
2021/03/24 10:45:21;;;;;;;61.17;32.43;;;11.80;99.90;;;;;;6157456;23;20276;-91
2021/03/24 10:52:37;;;;;;;59.40;30.47;;;12.00;99.90;;;;;;6156522;23;20252;-92
2021/03/24 10:55:23;;;;;;;59.37;30.83;;;12.10;99.90;;;;;;6155703;23;20627;-90
2021/03/24 10:58:07;;;;;;;56.23;29.33;;;12.10;99.90;;;;;;6155861;23;20331;-91
2021/03/24 11:00:37;;;;;;;47.57;25.43;;;12.20;99.90;;;;;;6155141;23;20147;-90
2021/03/24 11:03:26;;;;;;;49.60;26.07;;;12.30;99.90;;;;;;6154822;23;20143;-91
2021/03/24 11:06:28;;;;;;;49.10;26.20;;;12.40;99.90;;;;;;6155037;23;20162;-90
2021/03/24 11:09:12;;;;;;;44.83;25.40;;;12.40;99.90;;;;;;6124723;23;20189;-90
2021/03/24 11:11:56;;;;;;;51.07;28.70;;;12.40;99.90;;;;;;6155167;23;20238;-90
2021/03/24 11:14:31;;;;;;;60.23;29.77;;;12.40;99.90;;;;;;6155260;23;20266;-90
2021/03/24 11:17:03;;;;;;;70.50;33.90;;;12.40;99.90;;;;;;6155551;23;20143;-90
2021/03/24 11:19:33;;;;;;;49.90;27.37;;;12.40;99.90;;;;;;6155562;23;20210;-90
2021/03/24 11:22:14;;;;;;;47.13;25.30;;;12.30;99.90;;;;;;6155759;23;20573;-90
2021/03/24 11:25:10;;;;;;;49.80;26.83;;;12.50;99.90;;;;;;6155720;23;20205;-90
2021/03/24 11:27:40;;;;;;;45.00;25.13;;;12.50;99.90;;;;;;6155657;23;20155;-90
2021/03/24 11:30:27;;;;;;;51.97;28.90;;;12.40;99.90;;;;;;6155098;23;20156;-91
2021/03/24 11:33:06;;;;;;;46.87;27.87;;;12.40;99.90;;;;;;6155299;23;20250;-90
2021/03/24 11:35:52;;;;;;;53.87;28.80;;;12.50;99.90;;;;;;6155256;23;20155;-89
2021/03/24 11:38:46;;;;;;;47.83;27.50;;;12.40;99.90;;;;;;6155736;23;20580;-90
2021/03/24 11:41:24;;;;;;;46.43;26.77;;;12.40;99.90;;;;;;6155659;23;20143;-90
2021/03/24 11:44:04;;;;;;;47.97;25.33;;;12.20;99.90;;;;;;6155432;23;20269;-90
2021/03/24 11:46:53;;;;;;;46.27;26.63;;;11.90;99.90;;;;;;6155426;23;20520;-90
2021/03/24 11:49:39;;;;;;;45.40;25.43;;;11.90;99.90;;;;;;6155388;23;20158;-91
2021/03/24 11:52:35;;;;;;;45.47;25.33;;;12.00;99.90;;;;;;6155372;23;20216;-90
2021/03/24 11:55:39;;;;;;;48.13;27.07;;;12.20;99.90;;;;;;6155175;23;20490;-90
2021/03/24 11:58:26;;;;;;;47.90;27.50;;;12.10;99.90;;;;;;6155600;23;20163;-90
2021/03/24 12:01:14;;;;;;;45.50;26.20;;;12.00;99.90;;;;;;6155499;23;20225;-90
2021/03/24 12:03:50;;;;;;;50.73;26.13;;;12.10;99.90;;;;;;6155412;23;20199;-90
2021/03/24 12:07:07;;;;;;;42.93;24.50;;;12.20;99.90;;;;;;6155388;23;20163;-90
2021/03/24 12:09:37;;;;;;;42.63;25.07;;;12.50;99.90;;;;;;6122276;23;20211;-90
2021/03/24 12:12:08;;;;;;;43.63;24.63;;;12.70;99.90;;;;;;6155038;23;20238;-89
2021/03/24 12:14:34;;;;;;;41.83;23.83;;;12.70;99.90;;;;;;6155222;23;20175;-90
2021/03/24 12:17:03;;;;;;;45.33;23.73;;;12.90;99.90;;;;;;6155296;23;20160;-90
2021/03/24 12:19:32;;;;;;;45.23;25.07;;;12.80;99.90;;;;;;6155331;23;20546;-90
2021/03/24 12:22:17;;;;;;;42.97;25.30;;;13.00;99.90;;;;;;6155150;23;20156;-91
2021/03/24 12:24:44;;;;;;;42.70;24.57;;;13.10;99.90;;;;;;6155316;23;20262;-90
2021/03/24 12:27:20;;;;;;;44.00;25.20;;;13.10;99.90;;;;;;6155065;23;20170;-90
2021/03/24 12:30:02;;;;;;;44.43;25.87;;;13.20;99.90;;;;;;6155146;23;20152;-90
2021/03/24 12:33:19;;;;;;;43.03;23.97;;;13.10;99.90;;;;;;6155259;23;20627;-90
2021/03/24 12:35:47;;;;;;;41.10;24.03;;;13.10;99.90;;;;;;6142507;23;20242;-90
2021/03/24 12:38:17;;;;;;;44.17;23.57;;;13.00;99.90;;;;;;6155210;23;20160;-89
2021/03/24 12:41:02;;;;;;;40.90;23.63;;;12.90;99.90;;;;;;6154667;23;20161;-90
2021/03/24 12:43:37;;;;;;;43.43;23.17;;;13.00;99.90;;;;;;6155024;23;20222;-90
2021/03/24 12:46:19;;;;;;;40.50;21.70;;;13.00;99.90;;;;;;6154903;23;20149;-90
2021/03/24 12:48:54;;;;;;;40.07;23.63;;;13.10;99.90;;;;;;6154766;23;20163;-90
2021/03/24 12:51:40;;;;;;;42.13;23.17;;;13.00;99.90;;;;;;6155023;23;20166;-90
2021/03/24 12:54:12;;;;;;;44.43;24.27;;;13.10;99.90;;;;;;6154592;23;20188;-89
2021/03/24 12:56:55;;;;;;;43.70;24.73;;;13.20;99.90;;;;;;6154593;23;20172;-90
2021/03/24 12:59:44;;;;;;;38.80;21.40;;;13.00;99.90;;;;;;6154445;23;20183;-90
2021/03/24 13:02:28;;;;;;;41.53;24.37;;;13.00;99.90;;;;;;6154807;23;20179;-90
2021/03/24 13:05:20;;;;;;;40.93;22.90;;;13.00;99.90;;;;;;6154475;23;20258;-90
2021/03/24 13:07:57;;;;;;;43.30;25.13;;;13.00;99.90;;;;;;6154866;23;20614;-91
2021/03/24 13:10:37;;;;;;;45.93;24.80;;;13.00;99.90;;;;;;6155021;23;20154;-90
2021/03/24 13:13:12;;;;;;;41.13;22.37;;;12.80;99.90;;;;;;6154535;23;20175;-90
2021/03/24 13:19:30;;;;;;;41.50;23.07;;;13.00;99.90;;;;;;6159128;23;20205;-91
2021/03/24 13:22:00;;;;;;;42.80;23.13;;;13.30;99.90;;;;;;6155926;23;20145;-91
2021/03/24 16:44:28;;;;;;;49.90;27.57;;;11.10;99.90;;;;;;6157896;23;20722;-90
2021/03/24 16:47:18;;;;;;;55.50;30.80;;;11.10;99.90;;;;;;6131053;23;20182;-90
2021/03/24 16:49:52;;;;;;;52.03;28.17;;;11.00;99.90;;;;;;6154486;23;20478;-91
2021/03/24 16:53:18;;;;;;;50.60;28.33;;;11.00;99.90;;;;;;6154421;23;20174;-91
2021/03/24 21:22:01;;;;;;;45.43;21.97;;;7.40;99.90;;;;;;6189132;23;20382;-86
2021/03/24 21:24:27;;;;;;;44.10;20.63;;;7.30;99.90;;;;;;6189275;23;20160;-88
2021/03/24 21:26:52;;;;;;;45.90;22.33;;;7.30;99.90;;;;;;6162898;23;20156;-86
2021/03/24 21:29:18;;;;;;;46.80;22.80;;;7.20;99.90;;;;;;6162462;23;20585;-86
2021/03/24 21:31:43;;;;;;;41.87;20.33;;;7.20;99.90;;;;;;6162870;23;20612;-87
2021/03/24 21:41:48;;;;;;;47.57;23.00;;;7.10;99.90;;;;;;6190223;23;20199;-85
2021/03/24 21:44:22;;;;;;;48.83;24.07;;;7.10;99.90;;;;;;6163717;23;20156;-86
2021/03/24 21:46:51;;;;;;;44.53;21.63;;;7.10;99.90;;;;;;6189677;23;20167;-86
2021/03/24 21:49:22;;;;;;;48.67;24.10;;;7.20;99.90;;;;;;6163271;23;20180;-86
2021/03/24 21:51:49;;;;;;;50.07;25.57;;;7.00;99.90;;;;;;6162565;23;20153;-85
2021/03/24 21:54:16;;;;;;;48.63;24.83;;;6.90;99.90;;;;;;6189169;23;20176;-85
2021/03/24 21:57:27;;;;;;;50.13;23.50;;;6.90;99.90;;;;;;6189304;23;20219;-86
2021/03/24 21:59:52;;;;;;;48.23;25.10;;;6.80;99.90;;;;;;6148481;23;20152;-86
2021/03/24 22:02:36;;;;;;;50.60;21.97;;;6.80;99.90;;;;;;6162823;23;20226;-85
2021/03/24 22:05:09;;;;;;;48.10;23.37;;;6.90;99.90;;;;;;6189944;23;20580;-86
2021/03/24 22:07:36;;;;;;;46.43;23.27;;;6.90;99.90;;;;;;6162757;23;20189;-85
2021/03/24 22:10:22;;;;;;;48.20;23.53;;;6.80;99.90;;;;;;6162808;23;20239;-86
2021/03/24 22:12:54;;;;;;;50.33;23.07;;;6.80;99.90;;;;;;6189248;23;20263;-86
2021/03/24 22:15:30;;;;;;;51.00;24.17;;;6.70;99.90;;;;;;6163583;23;20151;-86
2021/03/24 22:18:10;;;;;;;42.20;21.77;;;6.60;99.90;;;;;;6189863;23;20175;-86
2021/03/24 22:20:39;;;;;;;41.73;20.27;;;6.70;99.90;;;;;;6164336;23;20159;-85
2021/03/24 22:23:06;;;;;;;47.80;22.67;;;6.70;99.90;;;;;;6163987;23;20494;-86
2021/03/24 22:25:33;;;;;;;46.30;23.17;;;6.80;99.90;;;;;;6164857;23;20172;-86
2021/03/24 22:28:09;;;;;;;48.00;22.47;;;6.70;99.90;;;;;;6191620;23;20195;-85
2021/03/24 22:31:19;;;;;;;52.23;22.47;;;6.80;99.90;;;;;;6191483;23;20678;-85
2021/03/24 22:34:13;;;;;;;52.07;25.30;;;6.80;99.90;;;;;;6183848;23;20287;-86
2021/03/24 22:36:41;;;;;;;49.90;23.37;;;6.70;99.90;;;;;;6164270;23;20172;-85
2021/03/24 22:39:16;;;;;;;57.70;27.03;;;6.70;99.90;;;;;;6163868;23;20192;-86
2021/03/24 22:41:43;;;;;;;50.30;24.77;;;6.80;99.90;;;;;;6191951;23;20560;-86
2021/03/24 22:44:29;;;;;;;58.97;26.30;;;6.80;99.90;;;;;;6165306;23;20225;-85
2021/03/24 22:47:18;;;;;;;51.83;25.43;;;6.80;99.90;;;;;;6165802;23;20148;-86
2021/03/24 22:49:52;;;;;;;51.07;25.47;;;6.80;99.90;;;;;;6191788;23;20145;-85
2021/03/24 22:52:20;;;;;;;48.07;24.10;;;6.80;99.90;;;;;;6164463;23;20155;-85
2021/03/24 22:55:02;;;;;;;50.63;22.47;;;6.90;99.90;;;;;;6165428;23;20231;-85
2021/03/24 22:57:36;;;;;;;47.80;20.50;;;6.90;99.90;;;;;;6164717;23;20149;-85
2021/03/24 23:00:06;;;;;;;44.23;21.10;;;7.00;99.90;;;;;;6164626;23;20175;-85
2021/03/24 23:02:38;;;;;;;45.13;22.13;;;7.00;99.90;;;;;;6193141;23;20156;-85
2021/03/24 23:05:04;;;;;;;45.37;21.87;;;7.00;99.90;;;;;;6191958;23;20140;-85
2021/03/24 23:07:30;;;;;;;54.57;23.07;;;7.00;99.90;;;;;;6189441;23;20187;-85
2021/03/24 23:09:57;;;;;;;53.67;24.27;;;7.00;99.90;;;;;;6165241;23;20509;-85
2021/03/24 23:12:40;;;;;;;51.50;22.23;;;7.00;99.90;;;;;;6191007;23;20151;-85
2021/03/24 23:15:09;;;;;;;46.53;22.40;;;7.00;99.90;;;;;;6163845;23;20160;-84
2021/03/24 23:17:46;;;;;;;46.10;22.23;;;7.00;99.90;;;;;;6164701;23;20242;-84
2021/03/24 23:20:27;;;;;;;53.33;22.07;;;7.00;99.90;;;;;;6163868;23;20159;-84
2021/03/24 23:22:53;;;;;;;61.23;25.73;;;7.00;99.90;;;;;;6164701;23;20409;-84
2021/03/24 23:25:23;;;;;;;55.77;23.77;;;7.00;99.90;;;;;;6165346;23;20172;-84
2021/03/24 23:27:51;;;;;;;55.30;22.80;;;7.00;99.90;;;;;;6164919;23;20238;-84
2021/03/24 23:30:19;;;;;;;56.03;24.70;;;7.00;99.90;;;;;;6191989;23;20156;-85
2021/03/24 23:32:45;;;;;;;58.17;24.27;;;7.10;99.90;;;;;;6188895;23;20188;-84
2021/03/24 23:35:13;;;;;;;58.73;23.27;;;7.10;99.90;;;;;;6165130;23;20152;-85
2021/03/24 23:37:39;;;;;;;57.90;22.10;;;7.10;99.90;;;;;;6165377;23;20557;-85
2021/03/24 23:40:08;;;;;;;48.27;22.40;;;7.20;99.90;;;;;;6166574;23;20168;-85
2021/03/24 23:42:34;;;;;;;55.30;23.07;;;7.10;99.90;;;;;;6166398;23;20153;-85
2021/03/24 23:44:59;;;;;;;57.97;21.97;;;7.10;99.90;;;;;;6165998;23;20156;-85
2021/03/24 23:47:25;;;;;;;55.23;21.03;;;7.10;99.90;;;;;;6192176;23;20195;-85
2021/03/24 23:49:51;;;;;;;50.83;22.00;;;7.10;99.90;;;;;;6191640;23;20153;-85
2021/03/24 23:52:16;;;;;;;52.93;23.60;;;7.10;99.90;;;;;;6166050;23;20171;-85
2021/03/24 23:54:42;;;;;;;49.27;21.33;;;7.10;99.90;;;;;;6166224;23;20195;-86
2021/03/24 23:57:08;;;;;;;53.10;21.80;;;7.10;99.90;;;;;;6167036;23;20168;-86
2021/03/24 23:59:34;;;;;;;42.03;19.73;;;7.10;99.90;;;;;;6192286;23;20492;-86
